createdAt,value
2023-04-06T00:00:25.869Z,400
2023-04-06T00:01:26.385Z,393
2023-04-06T00:02:23.727Z,392
2023-04-06T00:03:23.708Z,390
2023-04-06T00:04:23.514Z,395
2023-04-06T00:05:23.790Z,400
2023-04-06T00:07:23.604Z,401
2023-04-06T00:08:23.000Z,395
2023-04-06T00:09:24.503Z,404
2023-04-06T00:10:23.780Z,400
2023-04-06T00:11:22.665Z,388
2023-04-06T00:12:23.842Z,400
2023-04-06T00:13:22.963Z,401
2023-04-06T00:16:24.965Z,409
2023-04-06T00:17:22.935Z,407
2023-04-06T00:18:23.929Z,412
2023-04-06T00:19:23.813Z,407
2023-04-06T00:20:24.067Z,401
2023-04-06T00:21:23.238Z,405
2023-04-06T00:22:23.475Z,398
2023-04-06T00:23:23.657Z,396
2023-04-06T00:24:22.981Z,407
2023-04-06T00:25:24.005Z,404
2023-04-06T00:26:22.968Z,399
2023-04-06T00:27:23.693Z,394
2023-04-06T00:28:22.937Z,396
2023-04-06T00:29:23.956Z,395
2023-04-06T00:30:23.268Z,394
2023-04-06T00:31:23.141Z,405
2023-04-06T00:32:23.649Z,411
2023-04-06T00:33:23.161Z,410
2023-04-06T00:34:23.933Z,409
2023-04-06T00:35:23.385Z,407
2023-04-06T00:36:23.354Z,404
2023-04-06T00:37:23.271Z,411
2023-04-06T00:38:23.680Z,412
2023-04-06T00:39:23.267Z,403
2023-04-06T00:40:23.646Z,397
2023-04-06T00:41:23.194Z,399
2023-04-06T00:42:23.391Z,412
2023-04-06T00:43:22.738Z,416
2023-04-06T00:44:23.671Z,406
2023-04-06T00:45:23.599Z,405
2023-04-06T00:46:24.651Z,409
2023-04-06T00:47:23.516Z,412
2023-04-06T00:48:23.303Z,406
2023-04-06T00:50:23.517Z,414
2023-04-06T00:51:23.507Z,417
2023-04-06T00:52:23.336Z,408
2023-04-06T00:53:23.360Z,417
2023-04-06T00:54:24.226Z,426
2023-04-06T00:55:23.225Z,428
2023-04-06T00:56:22.823Z,429
2023-04-06T00:57:23.145Z,415
2023-04-06T00:58:22.942Z,428
2023-04-06T00:59:24.293Z,430
2023-04-06T01:00:24.473Z,427
2023-04-06T01:02:26.128Z,425
2023-04-06T01:03:22.819Z,422
2023-04-06T01:04:23.430Z,414
2023-04-06T01:05:23.197Z,416
2023-04-06T01:07:23.158Z,411
2023-04-06T01:08:23.619Z,412
2023-04-06T01:09:23.887Z,415
2023-04-06T01:10:24.322Z,420
2023-04-06T01:11:23.413Z,409
2023-04-06T01:12:23.581Z,410
2023-04-06T01:13:23.408Z,409
2023-04-06T01:14:22.687Z,414
2023-04-06T01:15:23.616Z,422
2023-04-06T01:16:23.819Z,432
2023-04-06T01:17:23.010Z,430
2023-04-06T01:18:24.341Z,428
2023-04-06T01:19:23.564Z,427
2023-04-06T01:20:23.811Z,430
2023-04-06T01:21:23.037Z,428
2023-04-06T01:22:23.654Z,425
2023-04-06T01:23:23.100Z,431
2023-04-06T01:25:23.113Z,430
2023-04-06T01:26:23.572Z,431
2023-04-06T01:27:23.162Z,434
2023-04-06T01:28:22.610Z,433
2023-04-06T01:29:23.396Z,432
2023-04-06T01:31:23.658Z,415
2023-04-06T01:32:23.638Z,420
2023-04-06T01:33:23.569Z,422
2023-04-06T01:34:23.062Z,416
2023-04-06T01:35:23.648Z,420
2023-04-06T01:36:23.873Z,424
2023-04-06T01:37:23.384Z,425
2023-04-06T01:38:23.041Z,411
2023-04-06T01:39:23.849Z,417
2023-04-06T01:40:23.821Z,415
2023-04-06T01:41:23.525Z,422
2023-04-06T01:43:24.066Z,421
2023-04-06T01:44:23.805Z,438
2023-04-06T01:45:23.605Z,450
2023-04-06T01:46:22.985Z,444
2023-04-06T01:47:23.161Z,445
2023-04-06T01:48:22.981Z,440
2023-04-06T01:49:23.609Z,442
2023-04-06T01:50:23.319Z,436
2023-04-06T01:51:23.275Z,440
2023-04-06T01:52:22.991Z,441
2023-04-06T01:53:23.275Z,444
2023-04-06T01:55:23.397Z,442
2023-04-06T01:56:23.046Z,431
2023-04-06T01:57:23.427Z,427
2023-04-06T01:58:23.602Z,435
2023-04-06T01:59:24.133Z,439
2023-04-06T02:00:29.902Z,436
2023-04-06T02:01:23.141Z,451
2023-04-06T02:02:23.803Z,446
2023-04-06T02:03:24.833Z,433
2023-04-06T02:04:23.596Z,436
2023-04-06T02:05:22.978Z,431
2023-04-06T02:06:23.136Z,430
2023-04-06T02:07:23.314Z,433
2023-04-06T02:08:23.844Z,434
2023-04-06T02:09:24.110Z,424
2023-04-06T02:10:23.401Z,429
2023-04-06T02:11:24.170Z,430
2023-04-06T02:12:23.293Z,431
2023-04-06T02:13:23.263Z,440
2023-04-06T02:14:23.700Z,431
2023-04-06T02:15:24.360Z,436
2023-04-06T02:16:24.102Z,441
2023-04-06T02:17:23.683Z,433
2023-04-06T02:18:24.264Z,439
2023-04-06T02:19:23.779Z,440
2023-04-06T02:20:23.815Z,444
2023-04-06T02:21:23.815Z,436
2023-04-06T02:23:23.468Z,438
2023-04-06T02:24:23.794Z,431
2023-04-06T02:25:23.089Z,426
2023-04-06T02:26:24.305Z,434
2023-04-06T02:27:24.062Z,436
2023-04-06T02:28:23.277Z,430
2023-04-06T02:30:24.640Z,425
2023-04-06T02:31:23.096Z,427
2023-04-06T02:32:23.330Z,419
2023-04-06T02:33:23.803Z,416
2023-04-06T02:34:24.111Z,423
2023-04-06T02:35:23.381Z,426
2023-04-06T02:36:23.172Z,432
2023-04-06T02:37:23.197Z,428
2023-04-06T02:38:24.191Z,434
2023-04-06T02:40:24.111Z,433
2023-04-06T02:41:23.647Z,437
2023-04-06T02:42:23.818Z,446
2023-04-06T02:43:23.306Z,445
2023-04-06T02:44:23.344Z,432
2023-04-06T02:46:23.487Z,436
2023-04-06T02:47:23.738Z,432
2023-04-06T02:48:23.507Z,430
2023-04-06T02:49:23.677Z,439
2023-04-06T02:50:23.644Z,440
2023-04-06T02:51:23.557Z,433
2023-04-06T02:52:23.849Z,439
2023-04-06T02:53:22.386Z,443
2023-04-06T02:54:23.369Z,440
2023-04-06T02:55:23.528Z,445
2023-04-06T02:56:23.484Z,439
2023-04-06T02:57:23.450Z,434
2023-04-06T02:58:23.380Z,425
2023-04-06T02:59:23.862Z,445
2023-04-06T03:00:24.567Z,444
2023-04-06T03:01:24.078Z,442
2023-04-06T03:02:23.188Z,449
2023-04-06T03:03:23.265Z,444
2023-04-06T03:04:23.599Z,443
2023-04-06T03:05:23.645Z,448
2023-04-06T03:06:23.941Z,453
2023-04-06T03:07:23.643Z,447
2023-04-06T03:08:23.437Z,442
2023-04-06T03:09:23.615Z,437
2023-04-06T03:10:24.084Z,432
2023-04-06T03:11:23.549Z,437
2023-04-06T03:12:23.935Z,442
2023-04-06T03:13:23.746Z,444
2023-04-06T03:14:24.141Z,449
2023-04-06T03:15:24.196Z,454
2023-04-06T03:16:23.632Z,446
2023-04-06T03:17:23.765Z,449
2023-04-06T03:18:23.226Z,446
2023-04-06T03:19:23.064Z,443
2023-04-06T03:20:23.606Z,447
2023-04-06T03:22:22.658Z,450
2023-04-06T03:23:23.224Z,448
2023-04-06T03:24:23.249Z,450
2023-04-06T03:25:23.067Z,465
2023-04-06T03:26:23.355Z,454
2023-04-06T03:27:23.956Z,455
2023-04-06T03:28:23.478Z,451
2023-04-06T03:29:23.658Z,449
2023-04-06T03:30:23.307Z,456
2023-04-06T03:31:23.138Z,454
2023-04-06T03:32:23.193Z,456
2023-04-06T03:33:23.435Z,454
2023-04-06T03:34:22.835Z,458
2023-04-06T03:35:23.443Z,452
2023-04-06T03:36:23.716Z,449
2023-04-06T03:37:23.367Z,445
2023-04-06T03:38:23.157Z,448
2023-04-06T03:39:23.871Z,463
2023-04-06T03:40:24.026Z,456
2023-04-06T03:41:23.302Z,458
2023-04-06T03:42:23.457Z,463
2023-04-06T03:43:22.856Z,473
2023-04-06T03:44:23.562Z,455
2023-04-06T03:46:23.232Z,458
2023-04-06T03:48:23.132Z,452
2023-04-06T03:49:23.193Z,453
2023-04-06T03:51:23.641Z,448
2023-04-06T03:52:23.330Z,452
2023-04-06T03:53:23.248Z,453
2023-04-06T03:54:23.473Z,456
2023-04-06T03:55:24.231Z,463
2023-04-06T03:57:23.245Z,466
2023-04-06T03:58:22.985Z,454
2023-04-06T03:59:23.531Z,453
2023-04-06T04:00:24.280Z,456
2023-04-06T04:01:23.394Z,462
2023-04-06T04:02:23.795Z,447
2023-04-06T04:03:23.719Z,461
2023-04-06T04:04:23.753Z,458
2023-04-06T04:05:24.079Z,459
2023-04-06T04:06:24.422Z,460
2023-04-06T04:07:23.584Z,458
2023-04-06T04:08:23.674Z,453
2023-04-06T04:09:24.092Z,448
2023-04-06T04:10:24.940Z,449
2023-04-06T04:11:23.515Z,456
2023-04-06T04:12:23.473Z,450
2023-04-06T04:13:22.475Z,451
2023-04-06T04:14:23.368Z,449
2023-04-06T04:15:23.695Z,452
2023-04-06T04:16:24.235Z,456
2023-04-06T04:18:23.643Z,458
2023-04-06T04:19:28.601Z,459
2023-04-06T04:20:23.774Z,464
2023-04-06T04:21:22.606Z,459
2023-04-06T04:22:23.720Z,456
2023-04-06T04:23:23.666Z,449
2023-04-06T04:24:23.490Z,456
2023-04-06T04:25:24.189Z,455
2023-04-06T04:26:23.325Z,444
2023-04-06T04:27:23.261Z,458
2023-04-06T04:28:22.719Z,470
2023-04-06T04:29:23.257Z,466
2023-04-06T04:30:23.572Z,460
2023-04-06T04:31:22.758Z,467
2023-04-06T04:32:23.642Z,472
2023-04-06T04:33:23.388Z,478
2023-04-06T04:34:23.188Z,462
2023-04-06T04:35:23.829Z,460
2023-04-06T04:36:23.476Z,468
2023-04-06T04:37:23.339Z,467
2023-04-06T04:38:23.298Z,466
2023-04-06T04:39:23.503Z,457
2023-04-06T04:40:23.240Z,459
2023-04-06T04:41:22.776Z,467
2023-04-06T04:42:22.907Z,470
2023-04-06T04:43:24.015Z,471
2023-04-06T04:44:23.471Z,472
2023-04-06T04:45:23.680Z,469
2023-04-06T04:46:24.270Z,466
2023-04-06T04:47:23.651Z,472
2023-04-06T04:48:23.729Z,477
2023-04-06T04:49:24.712Z,481
2023-04-06T04:50:24.460Z,487
2023-04-06T04:51:24.057Z,481
2023-04-06T04:52:24.235Z,471
2023-04-06T04:53:25.936Z,466
2023-04-06T04:54:25.300Z,469
2023-04-06T04:55:24.972Z,470
2023-04-06T04:56:25.492Z,467
2023-04-06T04:57:26.414Z,461
2023-04-06T04:58:26.667Z,449
2023-04-06T04:59:25.268Z,460
2023-04-06T05:00:24.639Z,466
2023-04-06T05:01:23.837Z,461
2023-04-06T05:02:24.011Z,462
2023-04-06T05:03:23.620Z,469
2023-04-06T05:05:24.388Z,464
2023-04-06T05:06:24.170Z,465
2023-04-06T05:07:24.115Z,460
2023-04-06T05:08:23.978Z,465
2023-04-06T05:09:23.821Z,470
2023-04-06T05:10:23.701Z,467
2023-04-06T05:11:24.261Z,475
2023-04-06T05:12:23.397Z,482
2023-04-06T05:13:23.553Z,484
2023-04-06T05:14:23.874Z,475
2023-04-06T05:15:24.626Z,479
2023-04-06T05:16:23.778Z,476
2023-04-06T05:17:24.333Z,470
2023-04-06T05:18:23.242Z,477
2023-04-06T05:19:24.018Z,471
2023-04-06T05:20:23.456Z,468
2023-04-06T05:21:23.605Z,483
2023-04-06T05:22:23.498Z,491
2023-04-06T05:23:23.527Z,487
2023-04-06T05:24:23.567Z,480
2023-04-06T05:25:23.420Z,479
2023-04-06T05:26:23.849Z,472
2023-04-06T05:27:23.523Z,476
2023-04-06T05:28:23.730Z,486
2023-04-06T05:29:23.400Z,485
2023-04-06T05:30:23.718Z,478
2023-04-06T05:31:23.212Z,474
2023-04-06T05:32:23.020Z,483
2023-04-06T05:34:23.827Z,482
2023-04-06T05:35:24.034Z,477
2023-04-06T05:36:24.172Z,488
2023-04-06T05:37:23.417Z,493
2023-04-06T05:38:23.121Z,492
2023-04-06T05:39:23.891Z,493
2023-04-06T05:40:23.310Z,489
2023-04-06T05:41:23.656Z,488
2023-04-06T05:42:22.802Z,487
2023-04-06T05:43:23.344Z,481
2023-04-06T05:44:23.456Z,472
2023-04-06T05:45:24.137Z,461
2023-04-06T05:46:23.726Z,448
2023-04-06T05:47:23.860Z,461
2023-04-06T05:49:23.441Z,450
2023-04-06T05:50:23.947Z,452
2023-04-06T05:51:23.824Z,455
2023-04-06T05:52:23.872Z,440
2023-04-06T05:53:23.947Z,435
2023-04-06T05:54:23.983Z,433
2023-04-06T05:55:24.169Z,427
2023-04-06T05:56:23.554Z,420
2023-04-06T05:57:23.186Z,428
2023-04-06T05:58:23.848Z,422
2023-04-06T05:59:23.347Z,419
2023-04-06T06:00:23.783Z,426
2023-04-06T06:01:24.357Z,421
2023-04-06T06:02:24.262Z,423
2023-04-06T06:03:23.746Z,418
2023-04-06T06:04:23.596Z,416
2023-04-06T06:05:23.475Z,422
2023-04-06T06:06:23.336Z,425
2023-04-06T06:07:23.630Z,431
2023-04-06T06:08:23.493Z,430
2023-04-06T06:09:23.403Z,421
2023-04-06T06:10:23.386Z,405
2023-04-06T06:12:23.460Z,395
2023-04-06T06:14:23.300Z,399
2023-04-06T06:15:24.479Z,386
2023-04-06T06:17:23.887Z,392
2023-04-06T06:19:23.059Z,399
2023-04-06T06:20:23.419Z,398
2023-04-06T06:21:24.048Z,401
2023-04-06T06:22:23.886Z,402
2023-04-06T06:23:23.496Z,396
2023-04-06T06:24:23.208Z,389
2023-04-06T06:25:23.833Z,385
2023-04-06T06:26:23.204Z,384
2023-04-06T06:27:23.329Z,380
2023-04-06T06:28:23.153Z,386
2023-04-06T06:29:23.374Z,388
2023-04-06T06:30:23.754Z,396
2023-04-06T06:31:23.749Z,391
2023-04-06T06:32:23.865Z,379
2023-04-06T06:33:23.386Z,387
2023-04-06T06:34:24.208Z,394
2023-04-06T06:35:24.426Z,396
2023-04-06T06:36:23.239Z,391
2023-04-06T06:38:24.073Z,389
2023-04-06T06:39:23.734Z,383
2023-04-06T06:40:28.690Z,380
2023-04-06T06:41:23.157Z,376
2023-04-06T06:42:25.096Z,375
2023-04-06T06:43:23.373Z,385
2023-04-06T06:44:23.161Z,384
2023-04-06T06:45:24.203Z,379
2023-04-06T06:46:23.768Z,373
2023-04-06T06:47:24.195Z,376
2023-04-06T06:48:23.763Z,377
2023-04-06T06:49:23.702Z,379
2023-04-06T06:50:23.787Z,375
2023-04-06T06:51:23.872Z,374
2023-04-06T06:52:31.105Z,393
2023-04-06T06:53:23.043Z,388
2023-04-06T06:54:23.162Z,382
2023-04-06T06:55:23.909Z,385
2023-04-06T06:56:24.474Z,383
2023-04-06T06:57:23.453Z,379
2023-04-06T06:58:23.531Z,375
2023-04-06T06:59:23.135Z,366
2023-04-06T07:00:24.304Z,370
2023-04-06T07:01:23.918Z,378
2023-04-06T07:02:37.196Z,375
2023-04-06T07:03:23.420Z,373
2023-04-06T07:04:23.351Z,379
2023-04-06T07:05:27.659Z,382
2023-04-06T07:06:23.626Z,372
2023-04-06T07:07:24.011Z,369
2023-04-06T07:08:23.558Z,374
2023-04-06T07:09:23.602Z,381
2023-04-06T07:10:23.475Z,378
2023-04-06T07:12:24.130Z,388
2023-04-06T07:13:23.059Z,372
2023-04-06T07:14:23.912Z,378
2023-04-06T07:15:23.624Z,385
2023-04-06T07:16:23.726Z,376
2023-04-06T07:17:23.868Z,366
2023-04-06T07:18:23.277Z,364
2023-04-06T07:19:23.269Z,368
2023-04-06T07:20:23.822Z,370
2023-04-06T07:21:23.931Z,367
2023-04-06T07:22:23.990Z,371
2023-04-06T07:23:23.260Z,367
2023-04-06T07:24:23.082Z,360
2023-04-06T07:25:25.709Z,362
2023-04-06T07:26:23.855Z,366
2023-04-06T07:27:24.745Z,363
2023-04-06T07:28:24.203Z,369
2023-04-06T07:29:23.648Z,370
2023-04-06T07:30:23.829Z,375
2023-04-06T07:31:24.133Z,371
2023-04-06T07:32:24.390Z,372
2023-04-06T07:33:23.932Z,383
2023-04-06T07:34:23.608Z,374
2023-04-06T07:35:23.990Z,367
2023-04-06T07:36:23.265Z,375
2023-04-06T07:37:23.982Z,361
2023-04-06T07:38:23.817Z,365
2023-04-06T07:39:23.762Z,371
2023-04-06T07:40:23.540Z,369
2023-04-06T07:41:23.492Z,368
2023-04-06T07:42:23.806Z,374
2023-04-06T07:43:23.828Z,373
2023-04-06T07:44:23.854Z,367
2023-04-06T07:45:23.786Z,365
2023-04-06T07:46:23.276Z,360
2023-04-06T07:47:23.731Z,363
2023-04-06T07:48:23.822Z,362
2023-04-06T07:49:23.489Z,350
2023-04-06T07:50:23.609Z,352
2023-04-06T07:51:23.501Z,346
2023-04-06T07:52:23.854Z,350
2023-04-06T07:53:23.931Z,357
2023-04-06T07:54:23.843Z,366
2023-04-06T07:55:24.339Z,363
2023-04-06T07:56:23.784Z,355
2023-04-06T07:57:24.312Z,357
2023-04-06T07:58:23.679Z,369
2023-04-06T07:59:22.885Z,367
2023-04-06T08:00:24.593Z,369
2023-04-06T08:01:23.911Z,364
2023-04-06T08:02:24.089Z,361
2023-04-06T08:03:23.944Z,364
2023-04-06T08:04:23.442Z,357
2023-04-06T08:05:23.784Z,358
2023-04-06T08:06:23.687Z,354
2023-04-06T08:07:23.806Z,352
2023-04-06T08:08:23.920Z,356
2023-04-06T08:09:23.901Z,361
2023-04-06T08:10:24.118Z,362
2023-04-06T08:11:24.018Z,356
2023-04-06T08:12:24.045Z,350
2023-04-06T08:13:24.435Z,345
2023-04-06T08:14:24.135Z,359
2023-04-06T08:15:23.778Z,362
2023-04-06T08:16:24.134Z,361
2023-04-06T08:17:23.356Z,358
2023-04-06T08:18:23.747Z,360
2023-04-06T08:19:23.949Z,357
2023-04-06T08:20:23.773Z,356
2023-04-06T08:21:23.672Z,359
2023-04-06T08:22:23.405Z,355
2023-04-06T08:23:23.656Z,360
2023-04-06T08:24:24.024Z,368
2023-04-06T08:25:23.920Z,355
2023-04-06T08:26:23.947Z,345
2023-04-06T08:27:23.266Z,365
2023-04-06T08:28:24.298Z,361
2023-04-06T08:29:23.672Z,349
2023-04-06T08:30:24.110Z,362
2023-04-06T08:31:23.395Z,368
2023-04-06T08:32:23.643Z,361
2023-04-06T08:33:23.620Z,344
2023-04-06T08:34:24.611Z,346
2023-04-06T08:35:24.256Z,349
2023-04-06T08:36:23.932Z,351
2023-04-06T08:37:23.646Z,363
2023-04-06T08:38:23.905Z,356
2023-04-06T08:39:23.768Z,361
2023-04-06T08:40:23.125Z,354
2023-04-06T08:41:24.622Z,357
2023-04-06T08:42:23.822Z,364
2023-04-06T08:43:23.361Z,358
2023-04-06T08:44:23.885Z,356
2023-04-06T08:45:24.124Z,353
2023-04-06T08:46:23.564Z,357
2023-04-06T08:47:24.953Z,358
2023-04-06T08:48:23.952Z,359
2023-04-06T08:49:23.567Z,362
2023-04-06T08:50:23.443Z,357
2023-04-06T08:52:23.094Z,355
2023-04-06T08:54:23.633Z,365
2023-04-06T08:55:24.211Z,361
2023-04-06T08:56:23.340Z,368
2023-04-06T08:57:23.079Z,367
2023-04-06T08:58:35.236Z,363
2023-04-06T08:59:23.745Z,347
2023-04-06T09:00:23.610Z,354
2023-04-06T09:01:23.434Z,358
2023-04-06T09:02:23.268Z,348
2023-04-06T09:03:23.223Z,350
2023-04-06T09:04:24.003Z,346
2023-04-06T09:06:23.360Z,352
2023-04-06T09:07:23.447Z,353
2023-04-06T09:08:24.072Z,354
2023-04-06T09:09:24.759Z,357
2023-04-06T09:10:24.166Z,350
2023-04-06T09:11:28.232Z,356
2023-04-06T09:12:23.247Z,353
2023-04-06T09:13:22.875Z,355
2023-04-06T09:14:23.777Z,353
2023-04-06T09:15:24.816Z,346
2023-04-06T09:16:24.364Z,341
2023-04-06T09:17:23.494Z,353
2023-04-06T09:18:23.518Z,356
2023-04-06T09:19:23.396Z,352
2023-04-06T09:20:23.676Z,355
2023-04-06T09:21:26.027Z,363
2023-04-06T09:22:23.335Z,365
2023-04-06T09:23:23.833Z,363
2023-04-06T09:24:23.955Z,360
2023-04-06T09:25:23.732Z,356
2023-04-06T09:26:23.552Z,365
2023-04-06T09:28:23.154Z,356
2023-04-06T09:29:24.041Z,348
2023-04-06T09:30:24.235Z,344
2023-04-06T09:31:24.148Z,346
2023-04-06T09:32:23.161Z,362
2023-04-06T09:33:23.977Z,364
2023-04-06T09:34:23.352Z,358
2023-04-06T09:35:23.251Z,366
2023-04-06T09:36:23.465Z,359
2023-04-06T09:37:23.352Z,353
2023-04-06T09:38:24.032Z,350
2023-04-06T09:39:42.543Z,355
2023-04-06T09:40:23.527Z,350
2023-04-06T09:41:23.023Z,348
2023-04-06T09:42:23.580Z,352
2023-04-06T09:43:42.994Z,358
2023-04-06T09:44:23.188Z,356
2023-04-06T09:45:43.184Z,357
2023-04-06T09:46:23.423Z,358
2023-04-06T09:47:42.402Z,364
2023-04-06T09:48:23.946Z,360
2023-04-06T09:50:23.325Z,355
2023-04-06T09:51:23.401Z,352
2023-04-06T09:52:23.964Z,349
2023-04-06T09:53:23.111Z,355
2023-04-06T09:54:23.179Z,356
2023-04-06T09:55:23.182Z,364
2023-04-06T09:56:23.488Z,361
2023-04-06T09:57:23.396Z,354
2023-04-06T09:58:23.522Z,348
2023-04-06T09:59:23.890Z,352
2023-04-06T10:00:24.522Z,349
2023-04-06T10:01:23.149Z,347
2023-04-06T10:02:23.320Z,364
2023-04-06T10:03:23.305Z,363
2023-04-06T10:04:22.927Z,355
2023-04-06T10:05:23.594Z,343
2023-04-06T10:06:23.211Z,349
2023-04-06T10:07:23.744Z,362
2023-04-06T10:08:23.828Z,358
2023-04-06T10:09:23.698Z,357
2023-04-06T10:10:23.539Z,358
2023-04-06T10:11:23.359Z,361
2023-04-06T10:12:23.107Z,366
2023-04-06T10:13:23.467Z,363
2023-04-06T10:14:23.368Z,355
2023-04-06T10:15:23.997Z,348
2023-04-06T10:16:23.245Z,351
2023-04-06T10:17:23.878Z,350
2023-04-06T10:18:23.814Z,353
2023-04-06T10:19:23.942Z,349
2023-04-06T10:20:23.515Z,350
2023-04-06T10:21:23.529Z,355
2023-04-06T10:23:23.184Z,353
2023-04-06T10:24:23.779Z,358
2023-04-06T10:25:23.855Z,363
2023-04-06T10:26:23.644Z,369
2023-04-06T10:27:23.938Z,364
2023-04-06T10:28:23.627Z,357
2023-04-06T10:29:23.548Z,356
2023-04-06T10:30:24.289Z,361
2023-04-06T10:31:23.397Z,347
2023-04-06T10:32:23.397Z,344
2023-04-06T10:33:23.335Z,352
2023-04-06T10:34:23.376Z,343
2023-04-06T10:35:23.813Z,344
2023-04-06T10:36:23.724Z,340
2023-04-06T10:37:23.704Z,342
2023-04-06T10:38:23.930Z,361
2023-04-06T10:39:23.711Z,355
2023-04-06T10:40:23.740Z,345
2023-04-06T10:41:23.244Z,351
2023-04-06T10:42:23.975Z,359
2023-04-06T10:43:23.452Z,353
2023-04-06T10:44:23.842Z,354
2023-04-06T10:45:24.197Z,348
2023-04-06T10:46:23.436Z,343
2023-04-06T10:47:23.610Z,340
2023-04-06T10:48:23.366Z,343
2023-04-06T10:49:23.109Z,345
2023-04-06T10:50:23.664Z,338
2023-04-06T10:51:23.482Z,336
2023-04-06T10:52:23.405Z,337
2023-04-06T10:53:23.248Z,350
2023-04-06T10:54:23.762Z,354
2023-04-06T10:55:23.425Z,355
2023-04-06T10:56:23.612Z,361
2023-04-06T10:57:23.543Z,355
2023-04-06T10:58:23.531Z,357
2023-04-06T10:59:23.753Z,349
2023-04-06T11:00:25.266Z,338
2023-04-06T11:01:23.658Z,341
2023-04-06T11:02:23.614Z,347
2023-04-06T11:03:23.649Z,359
2023-04-06T11:04:23.873Z,363
2023-04-06T11:05:23.434Z,352
2023-04-06T11:06:22.840Z,357
2023-04-06T11:07:23.401Z,352
2023-04-06T11:08:23.265Z,348
2023-04-06T11:09:23.904Z,349
2023-04-06T11:10:23.167Z,350
2023-04-06T11:11:23.448Z,351
2023-04-06T11:12:23.400Z,348
2023-04-06T11:14:23.341Z,346
2023-04-06T11:15:23.558Z,353
2023-04-06T11:16:23.734Z,351
2023-04-06T11:17:23.080Z,349
2023-04-06T11:18:23.320Z,343
2023-04-06T11:19:23.691Z,342
2023-04-06T11:20:23.528Z,338
2023-04-06T11:21:23.568Z,332
2023-04-06T11:22:22.974Z,344
2023-04-06T11:23:23.314Z,352
2023-04-06T11:24:23.090Z,350
2023-04-06T11:25:23.225Z,347
2023-04-06T11:27:23.893Z,344
2023-04-06T11:28:23.667Z,336
2023-04-06T11:29:23.796Z,342
2023-04-06T11:31:23.777Z,343
2023-04-06T11:32:28.494Z,341
2023-04-06T11:34:28.595Z,332
2023-04-06T11:35:23.408Z,339
2023-04-06T11:38:28.477Z,338
2023-04-06T11:39:23.873Z,334
2023-04-06T11:40:23.598Z,345
2023-04-06T11:41:23.418Z,344
2023-04-06T11:42:23.512Z,338
2023-04-06T11:43:23.310Z,344
2023-04-06T11:44:24.098Z,343
2023-04-06T11:45:23.582Z,342
2023-04-06T11:47:23.614Z,343
2023-04-06T11:48:24.633Z,338
2023-04-06T11:49:23.659Z,344
2023-04-06T11:50:23.453Z,351
2023-04-06T11:51:23.258Z,337
2023-04-06T11:52:37.677Z,350
2023-04-06T11:53:23.253Z,342
2023-04-06T11:54:23.685Z,340
2023-04-06T11:55:23.546Z,327
2023-04-06T11:56:23.361Z,325
2023-04-06T11:57:23.295Z,324
2023-04-06T11:58:23.561Z,341
2023-04-06T11:59:23.851Z,343
2023-04-06T12:00:24.083Z,345
2023-04-06T12:01:24.129Z,336
2023-04-06T12:02:38.518Z,345
2023-04-06T12:03:23.943Z,351
2023-04-06T12:04:42.642Z,353
2023-04-06T12:05:23.972Z,349
2023-04-06T12:06:23.380Z,352
2023-04-06T12:08:23.640Z,346
2023-04-06T12:09:23.766Z,344
2023-04-06T12:10:24.005Z,345
2023-04-06T12:11:24.054Z,337
2023-04-06T12:12:23.953Z,341
2023-04-06T12:13:23.577Z,346
2023-04-06T12:14:23.387Z,348
2023-04-06T12:15:23.511Z,355
2023-04-06T12:17:24.010Z,354
2023-04-06T12:19:23.619Z,353
2023-04-06T12:21:23.111Z,360
2023-04-06T12:22:23.178Z,350
2023-04-06T12:23:23.128Z,353
2023-04-06T12:24:23.880Z,347
2023-04-06T12:25:24.159Z,341
2023-04-06T12:26:23.283Z,339
2023-04-06T12:27:24.412Z,345
2023-04-06T12:28:23.705Z,342
2023-04-06T12:29:24.765Z,338
2023-04-06T12:31:27.009Z,335
2023-04-06T12:32:23.483Z,337
2023-04-06T12:33:23.971Z,346
2023-04-06T12:34:24.297Z,341
2023-04-06T12:35:23.276Z,322
2023-04-06T12:36:23.573Z,320
2023-04-06T12:38:23.051Z,342
2023-04-06T12:39:23.900Z,346
2023-04-06T12:41:23.644Z,342
2023-04-06T12:43:23.774Z,342
2023-04-06T12:44:25.406Z,348
2023-04-06T12:46:23.354Z,359
2023-04-06T12:47:23.278Z,349
2023-04-06T12:48:23.297Z,344
2023-04-06T12:49:23.268Z,347
2023-04-06T12:51:23.146Z,345
2023-04-06T12:52:23.940Z,344
2023-04-06T12:53:23.311Z,347
2023-04-06T12:55:23.452Z,343
2023-04-06T12:56:23.395Z,344
2023-04-06T12:57:23.357Z,346
2023-04-06T13:00:24.386Z,335
2023-04-06T13:01:23.515Z,341
2023-04-06T13:02:23.475Z,352
2023-04-06T13:03:23.426Z,350
2023-04-06T13:04:23.322Z,357
2023-04-06T13:06:23.429Z,347
2023-04-06T13:07:23.097Z,349
2023-04-06T13:08:23.394Z,352
2023-04-06T13:09:23.268Z,356
2023-04-06T13:10:23.739Z,354
2023-04-06T13:11:23.382Z,357
2023-04-06T13:12:23.867Z,350
2023-04-06T13:14:23.841Z,356
2023-04-06T13:15:23.434Z,358
2023-04-06T13:16:23.533Z,354
2023-04-06T13:17:23.550Z,345
2023-04-06T13:18:23.589Z,344
2023-04-06T13:19:23.262Z,349
2023-04-06T13:20:24.113Z,345
2023-04-06T13:21:23.640Z,347
2023-04-06T13:23:23.410Z,350
2023-04-06T13:24:23.018Z,346
2023-04-06T13:25:23.806Z,357
2023-04-06T13:26:23.741Z,359
2023-04-06T13:27:23.416Z,350
2023-04-06T13:28:23.297Z,360
2023-04-06T13:29:23.182Z,356
2023-04-06T13:30:23.779Z,349
2023-04-06T13:31:23.481Z,343
2023-04-06T13:32:23.544Z,347
2023-04-06T13:33:23.248Z,343
2023-04-06T13:34:23.412Z,354
2023-04-06T13:36:23.229Z,359
2023-04-06T13:37:23.055Z,357
2023-04-06T13:38:23.591Z,352
2023-04-06T13:39:23.412Z,355
2023-04-06T13:40:23.964Z,363
2023-04-06T13:41:23.221Z,348
2023-04-06T13:42:23.338Z,347
2023-04-06T13:43:23.702Z,349
2023-04-06T13:44:23.270Z,348
2023-04-06T13:45:23.452Z,365
2023-04-06T13:47:23.336Z,358
2023-04-06T13:48:22.887Z,353
2023-04-06T13:49:23.704Z,348
2023-04-06T13:50:23.929Z,350
2023-04-06T13:51:23.818Z,355
2023-04-06T13:52:22.978Z,357
2023-04-06T13:53:23.248Z,348
2023-04-06T13:54:23.162Z,351
2023-04-06T13:55:23.362Z,356
2023-04-06T13:56:23.116Z,355
2023-04-06T13:57:28.877Z,360
2023-04-06T13:58:23.133Z,355
2023-04-06T13:59:29.869Z,347
2023-04-06T14:00:24.205Z,354
2023-04-06T14:01:23.379Z,356
2023-04-06T14:02:23.469Z,348
2023-04-06T14:03:23.589Z,353
2023-04-06T14:04:23.394Z,348
2023-04-06T14:05:23.484Z,354
2023-04-06T14:06:31.386Z,350
2023-04-06T14:07:31.729Z,361
2023-04-06T14:08:23.084Z,366
2023-04-06T14:09:31.248Z,361
2023-04-06T14:10:23.055Z,357
2023-04-06T14:11:23.630Z,358
2023-04-06T14:12:23.367Z,355
2023-04-06T14:13:36.777Z,350
2023-04-06T14:14:23.795Z,346
2023-04-06T14:15:37.440Z,349
2023-04-06T14:16:23.467Z,355
2023-04-06T14:17:23.219Z,364
2023-04-06T14:18:23.024Z,357
2023-04-06T14:19:23.732Z,349
2023-04-06T14:20:23.582Z,343
2023-04-06T14:21:23.624Z,344
2023-04-06T14:22:23.149Z,351
2023-04-06T14:23:23.711Z,361
2023-04-06T14:25:23.880Z,353
2023-04-06T14:26:23.551Z,357
2023-04-06T14:27:22.907Z,348
2023-04-06T14:28:23.388Z,360
2023-04-06T14:30:23.616Z,355
2023-04-06T14:31:23.986Z,354
2023-04-06T14:32:23.634Z,352
2023-04-06T14:33:42.270Z,351
2023-04-06T14:35:23.151Z,359
2023-04-06T14:36:23.482Z,355
2023-04-06T14:37:23.047Z,349
2023-04-06T14:38:23.598Z,356
2023-04-06T14:39:23.396Z,359
2023-04-06T14:40:23.287Z,352
2023-04-06T14:42:23.662Z,350
2023-04-06T14:43:45.452Z,360
2023-04-06T14:45:23.575Z,361
2023-04-06T14:46:23.501Z,354
2023-04-06T14:47:23.106Z,349
2023-04-06T14:48:23.253Z,351
2023-04-06T14:49:23.340Z,350
2023-04-06T14:50:22.891Z,349
2023-04-06T14:51:23.083Z,357